sensor_id;sensor_type;location;lat;lon;timestamp;temperature;humidity
59857;DHT22;45733;52.668;6.860;2023-05-10T00:02:06;14.20;99.90
59857;DHT22;45733;52.668;6.860;2023-05-10T00:04:31;14.10;99.90
59857;DHT22;45733;52.668;6.860;2023-05-10T00:06:57;14.10;99.90
59857;DHT22;45733;52.668;6.860;2023-05-10T00:09:23;14.10;99.90
59857;DHT22;45733;52.668;6.860;2023-05-10T00:11:49;14.00;99.90
59857;DHT22;45733;52.668;6.860;2023-05-10T00:14:14;14.10;99.90
59857;DHT22;45733;52.668;6.860;2023-05-10T00:16:40;14.10;99.90
59857;DHT22;45733;52.668;6.860;2023-05-10T00:19:06;14.10;99.90
59857;DHT22;45733;52.668;6.860;2023-05-10T00:21:31;14.00;99.90
59857;DHT22;45733;52.668;6.860;2023-05-10T00:23:59;14.00;99.90
59857;DHT22;45733;52.668;6.860;2023-05-10T00:26:24;13.90;99.90
59857;DHT22;45733;52.668;6.860;2023-05-10T00:28:50;14.00;99.90
59857;DHT22;45733;52.668;6.860;2023-05-10T00:31:15;14.10;99.90
59857;DHT22;45733;52.668;6.860;2023-05-10T00:33:41;13.90;99.90
59857;DHT22;45733;52.668;6.860;2023-05-10T00:36:06;14.00;99.90
59857;DHT22;45733;52.668;6.860;2023-05-10T00:38:33;14.00;99.90
59857;DHT22;45733;52.668;6.860;2023-05-10T00:40:58;13.90;99.90
59857;DHT22;45733;52.668;6.860;2023-05-10T00:43:24;13.90;99.90
59857;DHT22;45733;52.668;6.860;2023-05-10T00:45:49;13.90;99.90
59857;DHT22;45733;52.668;6.860;2023-05-10T00:48:15;13.90;99.90
59857;DHT22;45733;52.668;6.860;2023-05-10T00:50:40;13.90;99.90
59857;DHT22;45733;52.668;6.860;2023-05-10T00:53:06;13.90;99.90
59857;DHT22;45733;52.668;6.860;2023-05-10T00:55:32;13.80;99.90
59857;DHT22;45733;52.668;6.860;2023-05-10T00:57:58;13.80;99.90
59857;DHT22;45733;52.668;6.860;2023-05-10T01:00:24;13.80;99.90
59857;DHT22;45733;52.668;6.860;2023-05-10T01:02:50;13.80;99.90
59857;DHT22;45733;52.668;6.860;2023-05-10T01:05:17;13.90;99.90
59857;DHT22;45733;52.668;6.860;2023-05-10T01:07:43;13.80;99.90
59857;DHT22;45733;52.668;6.860;2023-05-10T01:10:09;13.80;99.90
59857;DHT22;45733;52.668;6.860;2023-05-10T01:12:35;13.80;99.90
59857;DHT22;45733;52.668;6.860;2023-05-10T01:15:02;13.70;99.90
59857;DHT22;45733;52.668;6.860;2023-05-10T01:17:28;13.70;99.90
59857;DHT22;45733;52.668;6.860;2023-05-10T01:19:53;13.70;99.90
59857;DHT22;45733;52.668;6.860;2023-05-10T01:22:31;13.60;99.90
59857;DHT22;45733;52.668;6.860;2023-05-10T01:27:50;13.60;99.90
59857;DHT22;45733;52.668;6.860;2023-05-10T01:43:16;13.70;99.90
59857;DHT22;45733;52.668;6.860;2023-05-10T01:48:15;13.70;99.90
59857;DHT22;45733;52.668;6.860;2023-05-10T01:50:43;13.60;99.90
59857;DHT22;45733;52.668;6.860;2023-05-10T01:53:09;13.50;99.90
59857;DHT22;45733;52.668;6.860;2023-05-10T01:55:42;13.50;99.90
59857;DHT22;45733;52.668;6.860;2023-05-10T01:58:10;13.50;99.90
59857;DHT22;45733;52.668;6.860;2023-05-10T02:00:39;13.50;99.90
59857;DHT22;45733;52.668;6.860;2023-05-10T02:03:06;13.60;99.90
59857;DHT22;45733;52.668;6.860;2023-05-10T02:05:32;13.60;99.90
59857;DHT22;45733;52.668;6.860;2023-05-10T02:07:59;13.50;99.90
59857;DHT22;45733;52.668;6.860;2023-05-10T02:10:27;13.40;99.90
59857;DHT22;45733;52.668;6.860;2023-05-10T02:12:53;13.50;99.90
59857;DHT22;45733;52.668;6.860;2023-05-10T02:15:20;13.60;99.90
59857;DHT22;45733;52.668;6.860;2023-05-10T02:17:47;13.60;99.90
59857;DHT22;45733;52.668;6.860;2023-05-10T02:20:13;13.50;99.90
59857;DHT22;45733;52.668;6.860;2023-05-10T02:22:39;13.60;99.90
59857;DHT22;45733;52.668;6.860;2023-05-10T02:25:05;13.50;99.90
59857;DHT22;45733;52.668;6.860;2023-05-10T02:27:32;13.50;99.90
59857;DHT22;45733;52.668;6.860;2023-05-10T02:29:58;13.50;99.90
59857;DHT22;45733;52.668;6.860;2023-05-10T02:32:24;13.60;99.90
59857;DHT22;45733;52.668;6.860;2023-05-10T02:34:51;13.60;99.90
59857;DHT22;45733;52.668;6.860;2023-05-10T02:37:21;13.40;99.90
59857;DHT22;45733;52.668;6.860;2023-05-10T02:39:47;13.50;99.90
59857;DHT22;45733;52.668;6.860;2023-05-10T02:42:18;13.40;99.90
59857;DHT22;45733;52.668;6.860;2023-05-10T02:44:45;13.50;99.90
59857;DHT22;45733;52.668;6.860;2023-05-10T02:47:13;13.50;99.90
59857;DHT22;45733;52.668;6.860;2023-05-10T02:49:38;13.50;99.90
59857;DHT22;45733;52.668;6.860;2023-05-10T02:52:04;13.40;99.90
59857;DHT22;45733;52.668;6.860;2023-05-10T02:54:33;13.40;99.90
59857;DHT22;45733;52.668;6.860;2023-05-10T02:57:03;13.50;99.90
59857;DHT22;45733;52.668;6.860;2023-05-10T02:59:29;13.50;99.90
59857;DHT22;45733;52.668;6.860;2023-05-10T03:01:54;13.40;99.90
59857;DHT22;45733;52.668;6.860;2023-05-10T03:04:20;13.40;99.90
59857;DHT22;45733;52.668;6.860;2023-05-10T03:06:45;13.50;99.90
59857;DHT22;45733;52.668;6.860;2023-05-10T03:09:11;13.50;99.90
59857;DHT22;45733;52.668;6.860;2023-05-10T03:11:54;13.50;99.90
59857;DHT22;45733;52.668;6.860;2023-05-10T03:16:56;13.30;99.90
59857;DHT22;45733;52.668;6.860;2023-05-10T03:19:30;13.40;99.90
59857;DHT22;45733;52.668;6.860;2023-05-10T03:21:59;13.40;99.90
59857;DHT22;45733;52.668;6.860;2023-05-10T03:24:25;13.40;99.90
59857;DHT22;45733;52.668;6.860;2023-05-10T03:26:52;13.40;99.90
59857;DHT22;45733;52.668;6.860;2023-05-10T03:29:19;13.50;99.90
59857;DHT22;45733;52.668;6.860;2023-05-10T03:31:45;13.50;99.90
59857;DHT22;45733;52.668;6.860;2023-05-10T03:34:11;13.50;99.90
59857;DHT22;45733;52.668;6.860;2023-05-10T03:36:36;13.30;99.90
59857;DHT22;45733;52.668;6.860;2023-05-10T03:39:05;13.30;99.90
59857;DHT22;45733;52.668;6.860;2023-05-10T03:41:30;13.50;99.90
59857;DHT22;45733;52.668;6.860;2023-05-10T03:43:56;13.50;99.90
59857;DHT22;45733;52.668;6.860;2023-05-10T03:46:21;13.60;99.90
59857;DHT22;45733;52.668;6.860;2023-05-10T03:48:47;13.50;99.90
59857;DHT22;45733;52.668;6.860;2023-05-10T03:51:12;13.40;99.90
59857;DHT22;45733;52.668;6.860;2023-05-10T03:53:38;13.40;99.90
59857;DHT22;45733;52.668;6.860;2023-05-10T03:56:04;13.50;99.90
59857;DHT22;45733;52.668;6.860;2023-05-10T03:58:29;13.30;99.90
59857;DHT22;45733;52.668;6.860;2023-05-10T04:00:55;13.30;99.90
59857;DHT22;45733;52.668;6.860;2023-05-10T04:03:21;13.40;99.90
59857;DHT22;45733;52.668;6.860;2023-05-10T04:05:46;13.30;99.90
59857;DHT22;45733;52.668;6.860;2023-05-10T04:08:12;13.30;99.90
59857;DHT22;45733;52.668;6.860;2023-05-10T04:10:37;13.30;99.90
59857;DHT22;45733;52.668;6.860;2023-05-10T04:13:03;13.30;99.90
59857;DHT22;45733;52.668;6.860;2023-05-10T04:15:29;13.30;99.90
59857;DHT22;45733;52.668;6.860;2023-05-10T04:17:54;13.30;99.90
59857;DHT22;45733;52.668;6.860;2023-05-10T04:20:20;13.30;99.90
59857;DHT22;45733;52.668;6.860;2023-05-10T04:22:45;13.30;99.90
59857;DHT22;45733;52.668;6.860;2023-05-10T04:25:11;13.30;99.90
59857;DHT22;45733;52.668;6.860;2023-05-10T04:27:36;13.40;99.90
59857;DHT22;45733;52.668;6.860;2023-05-10T04:30:02;13.30;99.90
59857;DHT22;45733;52.668;6.860;2023-05-10T04:32:28;13.30;99.90
59857;DHT22;45733;52.668;6.860;2023-05-10T04:34:54;13.30;99.90
59857;DHT22;45733;52.668;6.860;2023-05-10T04:37:20;13.30;99.90
59857;DHT22;45733;52.668;6.860;2023-05-10T04:39:46;13.40;99.90
59857;DHT22;45733;52.668;6.860;2023-05-10T04:42:12;13.30;99.90
59857;DHT22;45733;52.668;6.860;2023-05-10T04:44:40;13.30;99.90
59857;DHT22;45733;52.668;6.860;2023-05-10T04:47:06;13.20;99.90
59857;DHT22;45733;52.668;6.860;2023-05-10T04:49:31;13.30;99.90
59857;DHT22;45733;52.668;6.860;2023-05-10T04:51:57;13.30;99.90
59857;DHT22;45733;52.668;6.860;2023-05-10T04:54:23;13.30;99.90
59857;DHT22;45733;52.668;6.860;2023-05-10T04:56:48;13.30;99.90
59857;DHT22;45733;52.668;6.860;2023-05-10T04:59:14;13.30;99.90
59857;DHT22;45733;52.668;6.860;2023-05-10T05:01:40;13.40;99.90
59857;DHT22;45733;52.668;6.860;2023-05-10T05:04:05;13.30;99.90
59857;DHT22;45733;52.668;6.860;2023-05-10T05:06:32;13.30;99.90
59857;DHT22;45733;52.668;6.860;2023-05-10T05:08:57;13.30;99.90
59857;DHT22;45733;52.668;6.860;2023-05-10T05:11:23;13.30;99.90
59857;DHT22;45733;52.668;6.860;2023-05-10T05:13:48;13.30;99.90
59857;DHT22;45733;52.668;6.860;2023-05-10T05:16:14;13.30;99.90
59857;DHT22;45733;52.668;6.860;2023-05-10T05:18:40;13.40;99.90
59857;DHT22;45733;52.668;6.860;2023-05-10T05:21:18;13.30;99.90
59857;DHT22;45733;52.668;6.860;2023-05-10T05:23:44;13.30;99.90
59857;DHT22;45733;52.668;6.860;2023-05-10T05:26:10;13.40;99.90
59857;DHT22;45733;52.668;6.860;2023-05-10T05:28:36;13.50;99.90
59857;DHT22;45733;52.668;6.860;2023-05-10T05:31:03;13.40;99.90
59857;DHT22;45733;52.668;6.860;2023-05-10T05:33:28;13.50;99.90
59857;DHT22;45733;52.668;6.860;2023-05-10T05:35:54;13.40;99.90
59857;DHT22;45733;52.668;6.860;2023-05-10T05:38:19;13.40;99.90
59857;DHT22;45733;52.668;6.860;2023-05-10T05:40:45;13.50;99.90
59857;DHT22;45733;52.668;6.860;2023-05-10T05:43:11;13.50;99.90
59857;DHT22;45733;52.668;6.860;2023-05-10T05:45:36;13.60;99.90
59857;DHT22;45733;52.668;6.860;2023-05-10T05:48:02;13.60;99.90
59857;DHT22;45733;52.668;6.860;2023-05-10T05:50:28;13.60;99.90
59857;DHT22;45733;52.668;6.860;2023-05-10T05:52:53;13.60;99.90
59857;DHT22;45733;52.668;6.860;2023-05-10T05:55:19;13.70;99.90
59857;DHT22;45733;52.668;6.860;2023-05-10T05:57:44;13.70;99.90
59857;DHT22;45733;52.668;6.860;2023-05-10T06:00:10;13.70;99.90
59857;DHT22;45733;52.668;6.860;2023-05-10T06:02:36;13.70;99.90
59857;DHT22;45733;52.668;6.860;2023-05-10T06:05:02;13.70;99.90
59857;DHT22;45733;52.668;6.860;2023-05-10T06:07:27;13.70;99.90
59857;DHT22;45733;52.668;6.860;2023-05-10T06:09:53;13.70;99.90
59857;DHT22;45733;52.668;6.860;2023-05-10T06:12:20;13.70;99.90
59857;DHT22;45733;52.668;6.860;2023-05-10T06:14:46;13.60;99.90
59857;DHT22;45733;52.668;6.860;2023-05-10T06:17:11;13.60;99.90
59857;DHT22;45733;52.668;6.860;2023-05-10T06:19:37;13.70;99.90
59857;DHT22;45733;52.668;6.860;2023-05-10T06:22:02;13.70;99.90
59857;DHT22;45733;52.668;6.860;2023-05-10T06:24:28;13.80;99.90
59857;DHT22;45733;52.668;6.860;2023-05-10T06:26:53;13.80;99.90
59857;DHT22;45733;52.668;6.860;2023-05-10T06:29:19;13.90;99.90
59857;DHT22;45733;52.668;6.860;2023-05-10T06:31:45;14.00;99.90
59857;DHT22;45733;52.668;6.860;2023-05-10T06:34:10;14.20;99.90
59857;DHT22;45733;52.668;6.860;2023-05-10T06:36:36;14.20;99.90
59857;DHT22;45733;52.668;6.860;2023-05-10T06:39:02;14.40;99.90
59857;DHT22;45733;52.668;6.860;2023-05-10T06:41:28;14.40;99.90
59857;DHT22;45733;52.668;6.860;2023-05-10T06:43:53;14.60;99.90
59857;DHT22;45733;52.668;6.860;2023-05-10T06:46:19;14.70;99.90
59857;DHT22;45733;52.668;6.860;2023-05-10T06:48:44;14.70;99.90
59857;DHT22;45733;52.668;6.860;2023-05-10T06:51:10;14.80;99.90
59857;DHT22;45733;52.668;6.860;2023-05-10T06:53:35;14.80;99.90
59857;DHT22;45733;52.668;6.860;2023-05-10T06:56:01;14.90;99.90
59857;DHT22;45733;52.668;6.860;2023-05-10T06:58:28;14.90;99.90
59857;DHT22;45733;52.668;6.860;2023-05-10T07:00:53;15.00;99.90
59857;DHT22;45733;52.668;6.860;2023-05-10T07:03:19;15.10;99.90
59857;DHT22;45733;52.668;6.860;2023-05-10T07:05:44;15.20;99.90
59857;DHT22;45733;52.668;6.860;2023-05-10T07:08:10;15.10;99.90
59857;DHT22;45733;52.668;6.860;2023-05-10T07:10:36;15.20;99.90
59857;DHT22;45733;52.668;6.860;2023-05-10T07:13:01;15.30;99.90
59857;DHT22;45733;52.668;6.860;2023-05-10T07:15:27;15.20;99.90
59857;DHT22;45733;52.668;6.860;2023-05-10T07:17:53;15.20;99.90
59857;DHT22;45733;52.668;6.860;2023-05-10T07:20:19;15.00;99.90
59857;DHT22;45733;52.668;6.860;2023-05-10T07:22:44;15.10;99.90
59857;DHT22;45733;52.668;6.860;2023-05-10T07:25:10;15.00;99.90
59857;DHT22;45733;52.668;6.860;2023-05-10T07:27:36;15.10;99.90
59857;DHT22;45733;52.668;6.860;2023-05-10T07:30:01;15.20;99.90
59857;DHT22;45733;52.668;6.860;2023-05-10T07:32:27;15.20;99.90
59857;DHT22;45733;52.668;6.860;2023-05-10T07:34:53;15.00;99.90
59857;DHT22;45733;52.668;6.860;2023-05-10T07:37:18;15.00;99.90
59857;DHT22;45733;52.668;6.860;2023-05-10T07:39:44;15.10;99.90
59857;DHT22;45733;52.668;6.860;2023-05-10T07:42:09;15.10;99.90
59857;DHT22;45733;52.668;6.860;2023-05-10T07:44:35;15.20;99.90
59857;DHT22;45733;52.668;6.860;2023-05-10T07:47:01;15.30;99.90
59857;DHT22;45733;52.668;6.860;2023-05-10T07:49:26;15.50;99.90
59857;DHT22;45733;52.668;6.860;2023-05-10T07:51:52;15.60;99.90
59857;DHT22;45733;52.668;6.860;2023-05-10T07:54:17;15.60;99.90
59857;DHT22;45733;52.668;6.860;2023-05-10T07:56:43;15.30;99.90
59857;DHT22;45733;52.668;6.860;2023-05-10T07:59:16;15.30;99.90
59857;DHT22;45733;52.668;6.860;2023-05-10T08:01:41;15.40;99.90
59857;DHT22;45733;52.668;6.860;2023-05-10T08:04:07;15.40;99.90
59857;DHT22;45733;52.668;6.860;2023-05-10T08:06:34;15.50;99.90
59857;DHT22;45733;52.668;6.860;2023-05-10T08:08:59;15.50;99.90
59857;DHT22;45733;52.668;6.860;2023-05-10T08:11:25;15.40;99.90
59857;DHT22;45733;52.668;6.860;2023-05-10T08:13:53;15.30;99.90
59857;DHT22;45733;52.668;6.860;2023-05-10T08:16:19;15.30;99.90
59857;DHT22;45733;52.668;6.860;2023-05-10T08:18:45;15.30;99.90
59857;DHT22;45733;52.668;6.860;2023-05-10T08:21:10;15.30;99.90
59857;DHT22;45733;52.668;6.860;2023-05-10T08:23:36;15.50;99.90
59857;DHT22;45733;52.668;6.860;2023-05-10T08:26:02;15.60;99.90
59857;DHT22;45733;52.668;6.860;2023-05-10T08:28:28;15.60;99.90
59857;DHT22;45733;52.668;6.860;2023-05-10T08:30:53;15.50;99.90
59857;DHT22;45733;52.668;6.860;2023-05-10T08:33:19;15.40;99.90
59857;DHT22;45733;52.668;6.860;2023-05-10T08:35:44;15.30;99.90
59857;DHT22;45733;52.668;6.860;2023-05-10T08:38:10;15.30;99.90
59857;DHT22;45733;52.668;6.860;2023-05-10T08:40:42;15.50;99.90
59857;DHT22;45733;52.668;6.860;2023-05-10T08:43:09;15.70;99.90
59857;DHT22;45733;52.668;6.860;2023-05-10T08:45:36;15.90;99.90
59857;DHT22;45733;52.668;6.860;2023-05-10T08:48:02;15.90;99.90
59857;DHT22;45733;52.668;6.860;2023-05-10T08:50:30;15.80;99.90
59857;DHT22;45733;52.668;6.860;2023-05-10T08:53:03;15.70;99.90
59857;DHT22;45733;52.668;6.860;2023-05-10T08:55:29;15.80;99.90
59857;DHT22;45733;52.668;6.860;2023-05-10T08:57:55;15.90;99.90
59857;DHT22;45733;52.668;6.860;2023-05-10T09:00:21;15.90;99.90
59857;DHT22;45733;52.668;6.860;2023-05-10T09:02:48;15.80;99.90
59857;DHT22;45733;52.668;6.860;2023-05-10T09:05:14;15.60;99.90
59857;DHT22;45733;52.668;6.860;2023-05-10T09:07:41;15.50;99.90
59857;DHT22;45733;52.668;6.860;2023-05-10T09:10:07;15.70;99.90
59857;DHT22;45733;52.668;6.860;2023-05-10T09:12:37;15.80;99.90
59857;DHT22;45733;52.668;6.860;2023-05-10T09:15:03;15.90;99.90
59857;DHT22;45733;52.668;6.860;2023-05-10T09:17:29;16.00;99.90
59857;DHT22;45733;52.668;6.860;2023-05-10T09:20:02;16.10;99.90
59857;DHT22;45733;52.668;6.860;2023-05-10T09:22:28;16.10;99.90
59857;DHT22;45733;52.668;6.860;2023-05-10T09:27:49;16.30;99.90
59857;DHT22;45733;52.668;6.860;2023-05-10T09:30:27;16.40;99.90
59857;DHT22;45733;52.668;6.860;2023-05-10T09:32:53;16.30;99.90
59857;DHT22;45733;52.668;6.860;2023-05-10T09:35:20;16.20;99.90
59857;DHT22;45733;52.668;6.860;2023-05-10T09:37:47;16.10;99.90
59857;DHT22;45733;52.668;6.860;2023-05-10T09:40:14;16.10;99.90
59857;DHT22;45733;52.668;6.860;2023-05-10T09:42:41;16.20;99.90
59857;DHT22;45733;52.668;6.860;2023-05-10T09:45:07;16.40;99.90
59857;DHT22;45733;52.668;6.860;2023-05-10T09:47:36;16.40;99.90
59857;DHT22;45733;52.668;6.860;2023-05-10T09:50:02;16.40;99.90
59857;DHT22;45733;52.668;6.860;2023-05-10T09:52:29;16.50;99.90
59857;DHT22;45733;52.668;6.860;2023-05-10T09:54:55;16.50;99.90
59857;DHT22;45733;52.668;6.860;2023-05-10T09:57:21;16.70;99.90
59857;DHT22;45733;52.668;6.860;2023-05-10T09:59:47;16.80;99.90
59857;DHT22;45733;52.668;6.860;2023-05-10T10:02:13;16.90;99.90
59857;DHT22;45733;52.668;6.860;2023-05-10T10:04:39;16.80;99.90
59857;DHT22;45733;52.668;6.860;2023-05-10T10:07:04;16.70;99.90
59857;DHT22;45733;52.668;6.860;2023-05-10T10:09:31;16.70;99.90
59857;DHT22;45733;52.668;6.860;2023-05-10T10:11:57;16.60;99.90
59857;DHT22;45733;52.668;6.860;2023-05-10T10:14:23;16.50;99.90
59857;DHT22;45733;52.668;6.860;2023-05-10T10:16:51;16.70;99.90
59857;DHT22;45733;52.668;6.860;2023-05-10T10:19:18;16.70;99.90
59857;DHT22;45733;52.668;6.860;2023-05-10T10:21:43;16.70;99.90
59857;DHT22;45733;52.668;6.860;2023-05-10T10:24:09;16.60;99.90
59857;DHT22;45733;52.668;6.860;2023-05-10T10:26:35;16.50;99.90
59857;DHT22;45733;52.668;6.860;2023-05-10T10:31:47;16.40;99.90
59857;DHT22;45733;52.668;6.860;2023-05-10T10:34:27;16.50;99.90
59857;DHT22;45733;52.668;6.860;2023-05-10T10:36:54;16.50;99.90
59857;DHT22;45733;52.668;6.860;2023-05-10T10:39:20;16.60;99.90
59857;DHT22;45733;52.668;6.860;2023-05-10T10:41:52;16.60;99.90
59857;DHT22;45733;52.668;6.860;2023-05-10T10:50:18;16.80;99.90
59857;DHT22;45733;52.668;6.860;2023-05-10T10:52:22;16.80;99.90
59857;DHT22;45733;52.668;6.860;2023-05-10T10:57:24;16.70;99.90
59857;DHT22;45733;52.668;6.860;2023-05-10T10:59:51;16.60;99.90
59857;DHT22;45733;52.668;6.860;2023-05-10T11:02:33;16.60;99.90
59857;DHT22;45733;52.668;6.860;2023-05-10T11:04:59;16.60;99.90
59857;DHT22;45733;52.668;6.860;2023-05-10T11:07:24;16.50;99.90
59857;DHT22;45733;52.668;6.860;2023-05-10T11:09:50;16.50;99.90
59857;DHT22;45733;52.668;6.860;2023-05-10T11:12:16;16.60;99.90
59857;DHT22;45733;52.668;6.860;2023-05-10T11:14:42;16.70;99.90
59857;DHT22;45733;52.668;6.860;2023-05-10T11:17:24;16.70;99.90
59857;DHT22;45733;52.668;6.860;2023-05-10T11:22:53;16.40;99.90
59857;DHT22;45733;52.668;6.860;2023-05-10T11:25:19;16.40;99.90
59857;DHT22;45733;52.668;6.860;2023-05-10T11:27:47;16.30;99.90
59857;DHT22;45733;52.668;6.860;2023-05-10T11:30:13;16.30;99.90
59857;DHT22;45733;52.668;6.860;2023-05-10T11:32:39;16.20;99.90
59857;DHT22;45733;52.668;6.860;2023-05-10T11:35:08;16.20;99.90
59857;DHT22;45733;52.668;6.860;2023-05-10T11:37:34;16.20;99.90
59857;DHT22;45733;52.668;6.860;2023-05-10T11:40:00;16.20;99.90
59857;DHT22;45733;52.668;6.860;2023-05-10T11:42:27;16.20;99.90
59857;DHT22;45733;52.668;6.860;2023-05-10T11:44:52;16.20;99.90
59857;DHT22;45733;52.668;6.860;2023-05-10T11:47:18;16.30;99.90
59857;DHT22;45733;52.668;6.860;2023-05-10T11:49:44;16.40;99.90
59857;DHT22;45733;52.668;6.860;2023-05-10T11:52:10;16.40;99.90
59857;DHT22;45733;52.668;6.860;2023-05-10T11:54:51;16.40;99.90
59857;DHT22;45733;52.668;6.860;2023-05-10T11:57:17;16.40;99.90
59857;DHT22;45733;52.668;6.860;2023-05-10T11:59:43;16.40;99.90
59857;DHT22;45733;52.668;6.860;2023-05-10T12:02:09;16.40;99.90
59857;DHT22;45733;52.668;6.860;2023-05-10T12:04:35;16.30;99.90
59857;DHT22;45733;52.668;6.860;2023-05-10T12:07:00;16.40;99.90
59857;DHT22;45733;52.668;6.860;2023-05-10T12:09:26;16.40;99.90
59857;DHT22;45733;52.668;6.860;2023-05-10T12:11:54;16.50;99.90
59857;DHT22;45733;52.668;6.860;2023-05-10T12:14:21;16.50;99.90
59857;DHT22;45733;52.668;6.860;2023-05-10T12:16:47;16.70;99.90
59857;DHT22;45733;52.668;6.860;2023-05-10T12:19:13;16.60;99.90
59857;DHT22;45733;52.668;6.860;2023-05-10T12:21:43;16.60;99.90
59857;DHT22;45733;52.668;6.860;2023-05-10T12:24:09;16.60;99.90
59857;DHT22;45733;52.668;6.860;2023-05-10T12:26:36;16.50;99.90
59857;DHT22;45733;52.668;6.860;2023-05-10T12:29:12;16.50;99.90
59857;DHT22;45733;52.668;6.860;2023-05-10T12:34:32;16.40;99.90
59857;DHT22;45733;52.668;6.860;2023-05-10T12:36:58;16.40;99.90
59857;DHT22;45733;52.668;6.860;2023-05-10T12:39:24;16.30;99.90
59857;DHT22;45733;52.668;6.860;2023-05-10T12:41:50;16.40;99.90
59857;DHT22;45733;52.668;6.860;2023-05-10T12:44:16;16.30;99.90
59857;DHT22;45733;52.668;6.860;2023-05-10T12:46:42;16.30;99.90
59857;DHT22;45733;52.668;6.860;2023-05-10T12:49:07;16.50;99.90
59857;DHT22;45733;52.668;6.860;2023-05-10T12:51:33;16.60;99.90
59857;DHT22;45733;52.668;6.860;2023-05-10T12:53:58;16.50;99.90
59857;DHT22;45733;52.668;6.860;2023-05-10T12:56:24;16.30;99.90
59857;DHT22;45733;52.668;6.860;2023-05-10T12:58:50;16.20;99.90
59857;DHT22;45733;52.668;6.860;2023-05-10T13:01:16;16.10;99.90
59857;DHT22;45733;52.668;6.860;2023-05-10T13:03:41;16.00;99.90
59857;DHT22;45733;52.668;6.860;2023-05-10T13:06:08;15.90;99.90
59857;DHT22;45733;52.668;6.860;2023-05-10T13:08:34;15.80;99.90
59857;DHT22;45733;52.668;6.860;2023-05-10T13:10:59;15.90;99.90
59857;DHT22;45733;52.668;6.860;2023-05-10T13:13:25;15.90;99.90
59857;DHT22;45733;52.668;6.860;2023-05-10T13:15:51;15.90;99.90
59857;DHT22;45733;52.668;6.860;2023-05-10T13:18:17;16.00;99.90
59857;DHT22;45733;52.668;6.860;2023-05-10T13:20:42;16.00;99.90
59857;DHT22;45733;52.668;6.860;2023-05-10T13:23:09;16.00;99.90
59857;DHT22;45733;52.668;6.860;2023-05-10T13:25:35;16.00;99.90
59857;DHT22;45733;52.668;6.860;2023-05-10T13:28:01;16.00;99.90
59857;DHT22;45733;52.668;6.860;2023-05-10T13:30:26;16.00;99.90
59857;DHT22;45733;52.668;6.860;2023-05-10T13:32:52;16.00;99.90
59857;DHT22;45733;52.668;6.860;2023-05-10T13:35:18;15.90;99.90
59857;DHT22;45733;52.668;6.860;2023-05-10T13:37:43;15.80;99.90
59857;DHT22;45733;52.668;6.860;2023-05-10T13:40:09;15.80;99.90
59857;DHT22;45733;52.668;6.860;2023-05-10T13:42:34;15.80;99.90
59857;DHT22;45733;52.668;6.860;2023-05-10T13:45:00;15.90;99.90
59857;DHT22;45733;52.668;6.860;2023-05-10T13:47:28;15.90;99.90
59857;DHT22;45733;52.668;6.860;2023-05-10T13:49:54;15.90;99.90
59857;DHT22;45733;52.668;6.860;2023-05-10T13:52:20;16.00;99.90
59857;DHT22;45733;52.668;6.860;2023-05-10T13:54:45;16.00;99.90
59857;DHT22;45733;52.668;6.860;2023-05-10T13:57:11;16.00;99.90
59857;DHT22;45733;52.668;6.860;2023-05-10T13:59:39;16.20;99.90
59857;DHT22;45733;52.668;6.860;2023-05-10T14:02:04;16.30;99.90
59857;DHT22;45733;52.668;6.860;2023-05-10T14:04:30;16.40;99.90
59857;DHT22;45733;52.668;6.860;2023-05-10T14:06:55;16.50;99.90
59857;DHT22;45733;52.668;6.860;2023-05-10T14:09:21;16.60;99.90
59857;DHT22;45733;52.668;6.860;2023-05-10T14:11:46;16.70;99.90
59857;DHT22;45733;52.668;6.860;2023-05-10T14:14:12;16.70;99.90
59857;DHT22;45733;52.668;6.860;2023-05-10T14:16:41;16.70;99.90
59857;DHT22;45733;52.668;6.860;2023-05-10T14:19:07;16.70;99.90
59857;DHT22;45733;52.668;6.860;2023-05-10T14:21:32;16.80;99.90
59857;DHT22;45733;52.668;6.860;2023-05-10T14:23:58;16.60;99.90
59857;DHT22;45733;52.668;6.860;2023-05-10T14:26:24;16.70;99.90
59857;DHT22;45733;52.668;6.860;2023-05-10T14:28:49;16.70;99.90
59857;DHT22;45733;52.668;6.860;2023-05-10T14:31:15;16.60;99.90
59857;DHT22;45733;52.668;6.860;2023-05-10T14:33:42;16.70;99.90
59857;DHT22;45733;52.668;6.860;2023-05-10T14:36:08;16.70;99.90
59857;DHT22;45733;52.668;6.860;2023-05-10T14:38:34;16.80;99.90
59857;DHT22;45733;52.668;6.860;2023-05-10T14:41:05;16.70;99.90
59857;DHT22;45733;52.668;6.860;2023-05-10T14:43:30;16.80;99.90
59857;DHT22;45733;52.668;6.860;2023-05-10T14:45:56;16.70;99.90
59857;DHT22;45733;52.668;6.860;2023-05-10T14:48:21;16.60;99.90
59857;DHT22;45733;52.668;6.860;2023-05-10T14:50:47;16.60;99.90
59857;DHT22;45733;52.668;6.860;2023-05-10T14:53:13;16.60;99.90
59857;DHT22;45733;52.668;6.860;2023-05-10T14:55:38;16.50;99.90
59857;DHT22;45733;52.668;6.860;2023-05-10T14:58:04;16.40;99.90
59857;DHT22;45733;52.668;6.860;2023-05-10T15:00:30;16.40;99.90
59857;DHT22;45733;52.668;6.860;2023-05-10T15:02:55;16.30;99.90
59857;DHT22;45733;52.668;6.860;2023-05-10T15:05:21;16.30;99.90
59857;DHT22;45733;52.668;6.860;2023-05-10T15:07:47;16.20;99.90
59857;DHT22;45733;52.668;6.860;2023-05-10T15:10:12;16.20;99.90
59857;DHT22;45733;52.668;6.860;2023-05-10T15:12:39;16.20;99.90
59857;DHT22;45733;52.668;6.860;2023-05-10T15:15:05;16.10;99.90
59857;DHT22;45733;52.668;6.860;2023-05-10T15:17:31;16.20;99.90
59857;DHT22;45733;52.668;6.860;2023-05-10T15:19:56;16.10;99.90
59857;DHT22;45733;52.668;6.860;2023-05-10T15:22:22;16.10;99.90
59857;DHT22;45733;52.668;6.860;2023-05-10T15:24:47;16.20;99.90
59857;DHT22;45733;52.668;6.860;2023-05-10T15:27:13;16.10;99.90
59857;DHT22;45733;52.668;6.860;2023-05-10T15:29:38;16.10;99.90
59857;DHT22;45733;52.668;6.860;2023-05-10T15:32:04;16.10;99.90
59857;DHT22;45733;52.668;6.860;2023-05-10T15:34:30;16.10;99.90
59857;DHT22;45733;52.668;6.860;2023-05-10T15:36:55;16.10;99.90
59857;DHT22;45733;52.668;6.860;2023-05-10T15:39:21;16.10;99.90
59857;DHT22;45733;52.668;6.860;2023-05-10T15:41:46;16.10;99.90
59857;DHT22;45733;52.668;6.860;2023-05-10T15:44:12;16.10;99.90
59857;DHT22;45733;52.668;6.860;2023-05-10T15:46:38;16.20;99.90
59857;DHT22;45733;52.668;6.860;2023-05-10T15:49:03;16.20;99.90
59857;DHT22;45733;52.668;6.860;2023-05-10T15:51:29;16.10;99.90
59857;DHT22;45733;52.668;6.860;2023-05-10T15:53:54;16.20;99.90
59857;DHT22;45733;52.668;6.860;2023-05-10T15:56:21;16.20;99.90
59857;DHT22;45733;52.668;6.860;2023-05-10T15:58:47;16.20;99.90
59857;DHT22;45733;52.668;6.860;2023-05-10T16:01:12;16.40;99.90
59857;DHT22;45733;52.668;6.860;2023-05-10T16:03:38;16.40;99.90
59857;DHT22;45733;52.668;6.860;2023-05-10T16:06:04;16.40;99.90